Terminal Aerodrome Forecast
Issued by NWS Huntsville, AL

Home | Current Version | Previous Version | Text Only | Print | Product List | Glossary On
Versions: 1 2 3 4 5 6 7 8 9 10 11 12 13 14 15 16 17 18 19 20 21 22 23 24 25 26 27 28 29 30 31 32 33
000
FTUS44 KHUN 301725
TAFMSL
TAF
KMSL 301725Z 3018/3118 27010KT P6SM -SHRA VCTS SCT009 BKN020
      BKN035CB
     FM302000 26008KT P6SM BKN050
     FM310200 VRB03KT P6SM SCT050 SCT250
     FM310900 VRB02KT 3SM BR FEW250=

USA.gov is the U.S. government's official web portal to all federal, state and local government web resources and services.